createdAt,value
2023-02-16T00:01:25.396Z,84.42
2023-02-16T00:03:56.390Z,84.57
2023-02-16T00:06:28.200Z,84.63
2023-02-16T00:08:58.433Z,84.63
2023-02-16T00:11:52.206Z,84.64
2023-02-16T00:14:25.536Z,84.74
2023-02-16T00:16:54.796Z,84.77
2023-02-16T00:19:28.498Z,85.00
2023-02-16T00:21:58.172Z,85.10
2023-02-16T00:24:27.162Z,85.21
2023-02-16T00:26:58.514Z,85.29
2023-02-16T00:29:32.672Z,85.30
2023-02-16T00:32:01.984Z,85.32
2023-02-16T00:34:37.416Z,85.51
2023-02-16T00:37:10.060Z,85.70
2023-02-16T00:39:38.383Z,85.72
2023-02-16T00:42:19.665Z,85.87
2023-02-16T00:44:58.406Z,85.83
2023-02-16T00:47:40.997Z,85.83
2023-02-16T00:50:18.870Z,85.88
2023-02-16T00:52:46.662Z,85.79
2023-02-16T00:55:16.338Z,85.83
2023-02-16T00:57:48.303Z,85.89
2023-02-16T01:00:29.082Z,85.94
2023-02-16T01:03:05.902Z,86.13
2023-02-16T01:05:33.639Z,86.23
2023-02-16T01:08:19.465Z,86.28
2023-02-16T01:11:05.295Z,86.33
2023-02-16T01:13:41.676Z,86.30
2023-02-16T01:16:21.227Z,86.30
2023-02-16T01:18:51.634Z,86.37
2023-02-16T01:21:18.658Z,86.48
2023-02-16T01:23:45.508Z,86.46
2023-02-16T01:26:16.179Z,86.65
2023-02-16T01:28:43.896Z,86.81
2023-02-16T01:31:12.099Z,86.95
2023-02-16T01:33:39.953Z,87.02
2023-02-16T01:36:18.690Z,86.54
2023-02-16T01:38:47.843Z,86.62
2023-02-16T01:41:53.538Z,86.94
2023-02-16T01:44:40.588Z,86.85
2023-02-16T01:47:26.454Z,87.06
2023-02-16T01:49:53.300Z,87.02
2023-02-16T01:52:29.533Z,87.20
2023-02-16T01:55:27.116Z,87.21
2023-02-16T01:58:17.177Z,87.42
2023-02-16T02:00:49.624Z,87.52
2023-02-16T02:03:47.650Z,87.53
2023-02-16T02:06:16.368Z,87.49
2023-02-16T02:09:10.080Z,87.36
2023-02-16T02:11:45.539Z,87.42
2023-02-16T02:14:26.990Z,87.40
2023-02-16T02:17:05.981Z,87.47
2023-02-16T02:19:45.658Z,87.57
2023-02-16T02:22:52.568Z,87.63
2023-02-16T02:25:44.126Z,87.51
2023-02-16T02:28:19.493Z,87.64
2023-02-16T02:31:21.568Z,87.52
2023-02-16T02:34:33.632Z,87.39
2023-02-16T02:37:18.608Z,87.41
2023-02-16T02:40:03.215Z,87.30
2023-02-16T02:42:51.454Z,87.44
2023-02-16T02:45:25.749Z,87.07
2023-02-16T02:47:53.678Z,86.80
2023-02-16T02:51:01.340Z,86.76
2023-02-16T02:53:29.200Z,86.66
2023-02-16T02:56:19.183Z,86.61
2023-02-16T02:59:09.157Z,86.70
2023-02-16T03:01:47.668Z,86.79
2023-02-16T03:04:19.845Z,86.70
2023-02-16T03:06:50.466Z,86.85
2023-02-16T03:09:18.222Z,86.81
2023-02-16T03:12:09.238Z,86.99
2023-02-16T03:15:00.575Z,86.89
2023-02-16T03:17:53.847Z,86.93
2023-02-16T03:20:39.340Z,86.89
2023-02-16T03:23:27.899Z,86.78
2023-02-16T03:26:14.234Z,86.90
2023-02-16T03:29:02.713Z,86.92
2023-02-16T03:31:37.370Z,87.07
2023-02-16T03:34:05.556Z,87.22
2023-02-16T03:36:38.434Z,86.95
2023-02-16T03:39:08.352Z,87.00
2023-02-16T03:41:43.048Z,87.21
2023-02-16T03:44:14.739Z,86.92
2023-02-16T03:46:41.960Z,87.01
2023-02-16T03:49:09.990Z,86.88
2023-02-16T03:51:41.766Z,86.94
2023-02-16T03:54:08.563Z,86.57
2023-02-16T03:56:35.063Z,86.51
2023-02-16T03:59:01.651Z,86.43
2023-02-16T04:01:28.449Z,86.34
2023-02-16T04:03:55.373Z,86.44
2023-02-16T04:06:22.065Z,86.43
2023-02-16T04:08:51.478Z,86.22
2023-02-16T04:11:37.423Z,85.96
2023-02-16T04:14:04.267Z,85.97
2023-02-16T04:16:30.937Z,85.84
2023-02-16T04:18:57.524Z,86.00
2023-02-16T04:21:24.340Z,85.79
2023-02-16T04:23:51.118Z,85.92
2023-02-16T04:26:19.887Z,85.70
2023-02-16T04:28:48.636Z,85.64
2023-02-16T04:31:15.588Z,85.88
2023-02-16T04:33:42.292Z,85.88
2023-02-16T04:36:10.753Z,86.02
2023-02-16T04:38:37.268Z,85.93
2023-02-16T04:41:07.922Z,85.96
2023-02-16T04:43:34.765Z,85.80
2023-02-16T04:46:04.010Z,86.00
2023-02-16T04:48:33.228Z,86.06
2023-02-16T04:51:00.114Z,85.42
2023-02-16T04:53:27.009Z,85.56
2023-02-16T04:55:56.347Z,85.54
2023-02-16T04:58:23.710Z,85.59
2023-02-16T05:00:53.083Z,85.68
2023-02-16T05:03:19.951Z,85.58
2023-02-16T05:05:49.935Z,85.70
2023-02-16T05:08:20.913Z,85.71
2023-02-16T05:11:07.862Z,85.68
2023-02-16T05:13:54.228Z,85.75
2023-02-16T05:16:24.113Z,85.63
2023-02-16T05:18:51.074Z,85.66
2023-02-16T05:21:32.991Z,85.68
2023-02-16T05:24:01.493Z,85.60
2023-02-16T05:26:28.780Z,85.70
2023-02-16T05:28:56.049Z,85.76
2023-02-16T05:31:23.741Z,85.67
2023-02-16T05:33:50.863Z,85.68
2023-02-16T05:36:18.572Z,85.51
2023-02-16T05:38:46.995Z,86.06
2023-02-16T05:41:23.690Z,85.79
2023-02-16T05:43:56.507Z,85.66
2023-02-16T05:46:24.502Z,85.64
2023-02-16T05:48:52.725Z,85.85
2023-02-16T05:51:21.534Z,85.75
2023-02-16T05:53:48.340Z,85.60
2023-02-16T05:56:15.621Z,85.60
2023-02-16T05:58:42.705Z,85.25
2023-02-16T06:01:09.693Z,85.62
2023-02-16T06:03:36.717Z,85.45
2023-02-16T06:06:05.033Z,85.34
2023-02-16T06:08:32.915Z,85.66
2023-02-16T06:11:00.131Z,85.30
2023-02-16T06:13:27.202Z,85.30
2023-02-16T06:15:57.309Z,85.55
2023-02-16T06:18:25.355Z,85.42
2023-02-16T06:20:52.344Z,85.42
2023-02-16T06:23:20.330Z,85.47
2023-02-16T06:25:51.905Z,85.50
2023-02-16T06:28:19.955Z,85.50
2023-02-16T06:30:46.741Z,85.31
2023-02-16T06:33:13.609Z,85.21
2023-02-16T06:35:42.203Z,85.41
2023-02-16T06:38:09.060Z,85.51
2023-02-16T06:40:35.877Z,85.38
2023-02-16T06:43:04.188Z,85.56
2023-02-16T06:45:31.807Z,85.46
2023-02-16T06:48:00.746Z,85.60
2023-02-16T06:50:27.565Z,85.64
2023-02-16T06:52:54.912Z,85.41
2023-02-16T06:55:22.759Z,85.74
2023-02-16T06:57:49.600Z,85.86
2023-02-16T07:00:17.090Z,85.83
2023-02-16T07:02:44.205Z,85.81
2023-02-16T07:05:11.110Z,85.78
2023-02-16T07:07:40.234Z,85.91
2023-02-16T07:10:10.336Z,85.88
2023-02-16T07:12:39.673Z,86.00
2023-02-16T07:15:06.835Z,85.92
2023-02-16T07:17:36.062Z,85.80
2023-02-16T07:20:06.856Z,85.92
2023-02-16T07:22:34.192Z,86.18
2023-02-16T07:25:01.418Z,85.92
2023-02-16T07:27:30.741Z,85.86
2023-02-16T07:29:57.271Z,85.88
2023-02-16T07:32:24.067Z,85.32
2023-02-16T07:34:52.828Z,85.62
2023-02-16T07:37:19.734Z,85.94
2023-02-16T07:39:47.394Z,85.49
2023-02-16T07:42:14.250Z,85.55
2023-02-16T07:44:40.897Z,85.22
2023-02-16T07:47:07.432Z,85.33
2023-02-16T07:49:45.827Z,85.29
2023-02-16T07:52:16.263Z,85.30
2023-02-16T07:54:43.035Z,85.19
2023-02-16T07:57:23.790Z,85.55
2023-02-16T07:59:54.302Z,85.32
2023-02-16T08:02:24.886Z,85.51
2023-02-16T08:04:54.593Z,85.57
2023-02-16T08:07:23.512Z,85.45
2023-02-16T08:09:50.184Z,85.53
2023-02-16T08:12:17.712Z,85.57
2023-02-16T08:14:47.604Z,85.59
2023-02-16T08:17:15.164Z,85.53
2023-02-16T08:19:45.023Z,85.40
2023-02-16T08:22:12.822Z,85.54
2023-02-16T08:24:40.845Z,85.62
2023-02-16T08:27:07.651Z,85.50
2023-02-16T08:29:34.526Z,85.75
2023-02-16T08:32:07.905Z,85.96
2023-02-16T08:34:35.691Z,85.99
2023-02-16T08:37:03.795Z,86.19
2023-02-16T08:39:33.131Z,86.52
2023-02-16T08:42:01.449Z,86.36
2023-02-16T08:44:29.691Z,86.31
2023-02-16T08:46:56.970Z,85.95
2023-02-16T08:49:24.184Z,85.91
2023-02-16T08:51:55.020Z,86.07
2023-02-16T08:54:28.142Z,86.00
2023-02-16T08:56:56.000Z,86.08
2023-02-16T08:59:24.741Z,86.05
2023-02-16T09:01:54.759Z,85.85
2023-02-16T09:04:21.921Z,86.03
2023-02-16T09:06:49.384Z,85.87
2023-02-16T09:09:17.072Z,85.99
2023-02-16T09:11:47.113Z,86.26
2023-02-16T09:14:18.665Z,86.37
2023-02-16T09:16:46.235Z,86.39
2023-02-16T09:19:15.387Z,86.41
2023-02-16T09:21:43.273Z,86.83
2023-02-16T09:24:13.020Z,87.04
2023-02-16T09:26:43.105Z,87.33
2023-02-16T09:29:14.143Z,87.64
2023-02-16T09:31:42.863Z,87.85
2023-02-16T09:34:21.818Z,88.26
2023-02-16T09:36:50.573Z,88.65
2023-02-16T09:39:19.287Z,88.79
2023-02-16T09:42:13.785Z,89.12
2023-02-16T09:44:54.570Z,89.05
2023-02-16T09:47:26.745Z,89.11
2023-02-16T09:49:56.407Z,89.21
2023-02-16T09:52:57.067Z,89.73
2023-02-16T09:55:30.658Z,89.79
2023-02-16T09:58:39.373Z,90.16
2023-02-16T10:01:23.862Z,90.05
2023-02-16T10:04:01.951Z,90.10
2023-02-16T10:06:33.069Z,90.17
2023-02-16T10:09:06.210Z,90.03
2023-02-16T10:11:41.656Z,90.07
2023-02-16T10:14:17.608Z,90.59
2023-02-16T10:17:15.207Z,90.73
2023-02-16T10:19:52.868Z,90.54
2023-02-16T10:22:36.964Z,90.70
2023-02-16T10:25:12.465Z,90.58
2023-02-16T10:27:44.053Z,90.80
2023-02-16T10:30:21.093Z,90.93
2023-02-16T10:33:06.847Z,90.99
2023-02-16T10:35:52.656Z,91.08
2023-02-16T10:38:24.670Z,91.04
2023-02-16T10:41:03.892Z,91.27
2023-02-16T10:43:42.855Z,91.33
2023-02-16T10:46:14.010Z,91.37
2023-02-16T10:48:40.792Z,91.32
2023-02-16T10:51:16.949Z,91.70
2023-02-16T10:53:51.505Z,91.70
2023-02-16T10:56:44.596Z,91.43
2023-02-16T10:59:36.389Z,91.55
2023-02-16T11:02:17.323Z,91.45
2023-02-16T11:04:46.985Z,91.44
2023-02-16T11:07:22.393Z,91.46
2023-02-16T11:09:55.426Z,91.39
2023-02-16T11:12:25.392Z,91.30
2023-02-16T11:15:03.521Z,91.54
2023-02-16T11:17:33.056Z,91.62
2023-02-16T11:20:09.759Z,91.66
2023-02-16T11:22:39.258Z,91.59
2023-02-16T11:25:20.588Z,91.64
2023-02-16T11:28:05.877Z,91.62
2023-02-16T11:30:32.715Z,91.71
2023-02-16T11:33:07.605Z,91.68
2023-02-16T11:35:45.033Z,91.78
2023-02-16T11:38:28.056Z,91.77
2023-02-16T11:40:56.357Z,91.45
2023-02-16T11:43:26.261Z,91.65
2023-02-16T11:46:03.927Z,91.35
2023-02-16T11:48:35.431Z,91.36
2023-02-16T11:51:06.357Z,91.50
2023-02-16T11:53:44.808Z,91.31
2023-02-16T11:56:17.933Z,91.37
2023-02-16T11:58:45.173Z,91.31
2023-02-16T12:01:22.289Z,91.23
2023-02-16T12:04:08.531Z,91.34
2023-02-16T12:07:15.674Z,91.21
2023-02-16T12:10:04.225Z,91.01
2023-02-16T12:12:37.515Z,90.96
2023-02-16T12:15:49.953Z,90.74
2023-02-16T12:18:47.010Z,90.82
2023-02-16T12:21:28.809Z,90.64
2023-02-16T12:24:18.435Z,90.53
2023-02-16T12:26:59.006Z,90.33
2023-02-16T12:29:58.103Z,90.26
2023-02-16T12:32:43.177Z,90.40
2023-02-16T12:35:32.011Z,90.19
2023-02-16T12:38:17.732Z,89.35
2023-02-16T12:40:50.724Z,89.20
2023-02-16T12:43:20.581Z,89.27
2023-02-16T12:45:48.409Z,88.88
2023-02-16T12:48:42.686Z,88.29
2023-02-16T12:51:18.708Z,88.15
2023-02-16T12:54:28.804Z,87.77
2023-02-16T12:57:01.720Z,87.85
2023-02-16T12:59:55.492Z,87.26
2023-02-16T13:02:37.510Z,87.05
2023-02-16T13:05:21.345Z,87.16
2023-02-16T13:07:55.028Z,87.02
2023-02-16T13:10:33.392Z,86.33
2023-02-16T13:13:19.684Z,86.43
2023-02-16T13:15:52.187Z,86.53
2023-02-16T13:18:26.720Z,86.45
2023-02-16T13:21:37.080Z,86.53
2023-02-16T13:24:23.265Z,86.60
2023-02-16T13:27:15.279Z,86.06
2023-02-16T13:30:04.359Z,86.29
2023-02-16T13:33:05.831Z,86.06
2023-02-16T13:35:48.783Z,86.03
2023-02-16T13:38:36.006Z,85.90
2023-02-16T13:41:35.066Z,85.78
2023-02-16T13:44:16.056Z,85.49
2023-02-16T13:46:50.553Z,85.52
2023-02-16T13:49:32.542Z,85.02
2023-02-16T13:52:00.707Z,84.89
2023-02-16T13:54:35.690Z,84.83
2023-02-16T13:57:04.410Z,84.44
2023-02-16T13:59:37.364Z,84.35
2023-02-16T14:02:13.108Z,84.17
2023-02-16T14:04:39.963Z,83.97
2023-02-16T14:07:10.801Z,84.13
2023-02-16T14:09:40.611Z,84.13
2023-02-16T14:12:12.112Z,83.98
2023-02-16T14:15:01.002Z,84.20
2023-02-16T14:17:36.337Z,84.41
2023-02-16T14:20:17.692Z,84.32
2023-02-16T14:22:51.222Z,83.92
2023-02-16T14:25:23.952Z,84.13
2023-02-16T14:27:51.784Z,83.99
2023-02-16T14:30:27.238Z,84.21
2023-02-16T14:33:02.663Z,84.26
2023-02-16T14:35:34.495Z,84.29
2023-02-16T14:38:07.805Z,84.27
2023-02-16T14:40:57.636Z,83.95
2023-02-16T14:43:46.926Z,83.74
2023-02-16T14:46:39.029Z,83.95
2023-02-16T14:49:57.726Z,83.83
2023-02-16T14:52:55.365Z,83.67
2023-02-16T14:55:28.332Z,83.70
2023-02-16T14:58:06.537Z,83.82
2023-02-16T15:00:46.279Z,83.65
2023-02-16T15:03:27.196Z,83.73
2023-02-16T15:06:04.803Z,83.79
2023-02-16T15:08:36.622Z,83.29
2023-02-16T15:11:14.206Z,83.37
2023-02-16T15:13:45.989Z,83.49
2023-02-16T15:16:16.906Z,83.48
2023-02-16T15:18:57.118Z,83.17
2023-02-16T15:21:29.287Z,83.33
2023-02-16T15:24:02.553Z,83.41
2023-02-16T15:26:36.342Z,83.34
2023-02-16T15:29:22.886Z,83.34
2023-02-16T15:31:51.679Z,83.87
2023-02-16T15:34:34.833Z,84.09
2023-02-16T15:37:19.610Z,84.70
2023-02-16T15:40:06.146Z,85.08
2023-02-16T15:42:34.468Z,85.27
2023-02-16T15:45:03.762Z,85.56
2023-02-16T15:47:30.262Z,85.85
2023-02-16T15:49:58.637Z,86.16
2023-02-16T15:52:34.016Z,86.44
2023-02-16T15:55:04.815Z,86.68
2023-02-16T15:57:38.919Z,86.91
2023-02-16T16:00:16.198Z,87.05
2023-02-16T16:02:48.572Z,87.53
2023-02-16T16:05:27.594Z,87.94
2023-02-16T16:07:58.151Z,88.25
2023-02-16T16:10:33.281Z,88.63
2023-02-16T16:13:03.329Z,88.77
2023-02-16T16:15:37.102Z,89.17
2023-02-16T16:18:06.516Z,89.67
2023-02-16T16:20:38.824Z,89.87
2023-02-16T16:23:26.248Z,90.29
2023-02-16T16:25:55.521Z,90.41
2023-02-16T16:28:26.684Z,90.89
2023-02-16T16:31:12.510Z,91.35
2023-02-16T16:34:07.108Z,91.51
2023-02-16T16:36:41.114Z,91.44
2023-02-16T16:39:16.761Z,91.67
2023-02-16T16:42:28.947Z,92.21
2023-02-16T16:45:02.105Z,92.28
2023-02-16T16:47:37.986Z,92.52
2023-02-16T16:50:27.890Z,92.67
2023-02-16T16:52:55.487Z,92.55
2023-02-16T16:55:26.905Z,92.81
2023-02-16T16:57:56.480Z,92.77
2023-02-16T17:00:25.482Z,93.18
2023-02-16T17:02:54.803Z,93.37
2023-02-16T17:05:21.928Z,93.63
2023-02-16T17:07:50.099Z,93.46
2023-02-16T17:10:20.429Z,93.72
2023-02-16T17:12:50.619Z,93.68
2023-02-16T17:15:31.022Z,93.90
2023-02-16T17:17:58.123Z,93.80
2023-02-16T17:20:25.230Z,94.08
2023-02-16T17:22:52.207Z,93.82
2023-02-16T17:25:22.581Z,94.08
2023-02-16T17:27:52.588Z,94.21
2023-02-16T17:30:19.855Z,94.07
2023-02-16T17:32:46.627Z,94.15
2023-02-16T17:35:13.469Z,94.09
2023-02-16T17:37:41.705Z,94.36
2023-02-16T17:40:19.977Z,94.25
2023-02-16T17:42:48.535Z,94.12
2023-02-16T17:45:17.292Z,94.07
2023-02-16T17:47:45.466Z,94.22
2023-02-16T17:50:19.798Z,94.22
2023-02-16T17:52:47.041Z,94.21
2023-02-16T17:55:14.102Z,93.98
2023-02-16T17:57:41.197Z,94.37
2023-02-16T18:00:13.291Z,94.37
2023-02-16T18:02:39.990Z,94.51
2023-02-16T18:05:07.607Z,94.46
2023-02-16T18:07:34.384Z,94.57
2023-02-16T18:10:04.468Z,94.68
2023-02-16T18:12:31.233Z,94.75
2023-02-16T18:14:58.169Z,95.19
2023-02-16T18:17:25.184Z,95.05
2023-02-16T18:19:52.338Z,95.09
2023-02-16T18:22:18.988Z,95.22
2023-02-16T18:24:45.891Z,95.24
2023-02-16T18:27:12.543Z,95.25
2023-02-16T18:29:39.701Z,95.29
2023-02-16T18:32:06.680Z,95.35
2023-02-16T18:34:35.457Z,95.44
2023-02-16T18:37:02.165Z,95.64
2023-02-16T18:39:30.042Z,95.62
2023-02-16T18:41:58.288Z,95.72
2023-02-16T18:44:28.445Z,95.75
2023-02-16T18:46:58.750Z,95.64
2023-02-16T18:49:28.585Z,95.63
2023-02-16T18:51:56.222Z,95.66
2023-02-16T18:54:23.006Z,95.82
2023-02-16T18:56:51.410Z,95.54
2023-02-16T18:59:26.158Z,95.79
2023-02-16T19:01:59.294Z,95.98
2023-02-16T19:04:46.436Z,96.04
2023-02-16T19:07:13.372Z,96.07
2023-02-16T19:09:43.481Z,96.07
2023-02-16T19:12:12.106Z,95.97
2023-02-16T19:22:53.424Z,96.25
2023-02-16T19:25:21.778Z,96.20
2023-02-16T19:27:48.840Z,96.17
2023-02-16T19:30:20.101Z,96.23
2023-02-16T19:32:47.176Z,96.24
2023-02-16T19:35:15.314Z,96.41
2023-02-16T19:37:42.286Z,96.51
2023-02-16T19:40:13.268Z,96.48
2023-02-16T19:42:40.538Z,96.56
2023-02-16T19:45:09.122Z,96.66
2023-02-16T19:47:39.005Z,96.74
2023-02-16T19:50:06.242Z,96.62
2023-02-16T19:52:35.913Z,96.66
2023-02-16T19:55:05.285Z,96.69
2023-02-16T19:57:31.867Z,96.91
2023-02-16T19:59:58.883Z,96.84
2023-02-16T20:02:27.247Z,96.83
2023-02-16T20:04:54.755Z,97.00
2023-02-16T20:07:21.687Z,97.14
2023-02-16T20:09:48.678Z,97.30
2023-02-16T20:12:17.477Z,96.97
2023-02-16T20:14:44.480Z,97.21
2023-02-16T20:17:11.955Z,97.05
2023-02-16T20:19:38.925Z,96.94
2023-02-16T20:22:05.740Z,97.18
2023-02-16T20:24:32.669Z,97.14
2023-02-16T20:27:04.595Z,97.32
2023-02-16T20:29:34.786Z,97.19
2023-02-16T20:32:02.557Z,97.38
2023-02-16T20:34:31.038Z,97.40
2023-02-16T20:36:58.588Z,97.47
2023-02-16T20:39:25.409Z,97.57
2023-02-16T20:41:52.306Z,97.48
2023-02-16T20:44:19.159Z,97.44
2023-02-16T20:46:46.620Z,97.65
2023-02-16T20:49:14.234Z,97.48
2023-02-16T20:51:41.859Z,97.47
2023-02-16T20:54:09.533Z,97.47
2023-02-16T20:56:36.449Z,97.54
2023-02-16T20:59:04.800Z,97.52
2023-02-16T21:01:33.510Z,97.59
2023-02-16T21:04:00.501Z,97.57
2023-02-16T21:06:28.661Z,97.56
2023-02-16T21:08:57.193Z,97.51
2023-02-16T21:11:25.700Z,97.70
2023-02-16T21:13:53.386Z,97.46
2023-02-16T21:16:22.412Z,97.46
2023-02-16T21:18:49.779Z,97.59
2023-02-16T21:21:17.488Z,97.59
2023-02-16T21:23:46.777Z,97.47
2023-02-16T21:26:14.048Z,97.58
2023-02-16T21:28:41.577Z,97.54
2023-02-16T21:31:18.089Z,97.51
2023-02-16T21:33:47.768Z,97.94
2023-02-16T21:36:25.219Z,97.59
2023-02-16T21:38:52.244Z,97.56
2023-02-16T21:41:30.519Z,97.48
2023-02-16T21:43:59.542Z,97.73
2023-02-16T21:46:27.979Z,97.53
2023-02-16T21:48:55.609Z,97.48
2023-02-16T21:51:28.432Z,97.55
2023-02-16T21:53:56.381Z,97.67
2023-02-16T21:56:27.537Z,97.49
2023-02-16T21:58:54.275Z,97.44
2023-02-16T22:01:23.764Z,97.61
2023-02-16T22:03:57.527Z,97.49
2023-02-16T22:06:28.092Z,97.46
2023-02-16T22:08:57.488Z,97.54
2023-02-16T22:11:24.881Z,97.17
2023-02-16T22:14:00.182Z,97.46
2023-02-16T22:16:28.654Z,97.41
2023-02-16T22:19:00.682Z,97.25
2023-02-16T22:21:28.290Z,97.24
2023-02-16T22:23:55.897Z,97.27
2023-02-16T22:26:28.256Z,97.28
2023-02-16T22:28:55.448Z,97.05
2023-02-16T22:31:24.893Z,97.08
2023-02-16T22:34:02.931Z,97.20
2023-02-16T22:36:30.256Z,97.16
2023-02-16T22:38:57.787Z,97.33
2023-02-16T22:41:25.220Z,96.96
2023-02-16T22:43:54.489Z,97.09
2023-02-16T22:46:22.265Z,96.98
2023-02-16T22:48:48.902Z,96.89
2023-02-16T22:51:18.012Z,96.97
2023-02-16T22:53:48.944Z,96.96
2023-02-16T22:56:18.199Z,96.78
2023-02-16T22:58:47.750Z,96.90
2023-02-16T23:01:18.015Z,96.97
2023-02-16T23:03:56.970Z,96.83
2023-02-16T23:06:30.020Z,96.77
2023-02-16T23:09:00.941Z,96.73
2023-02-16T23:11:30.818Z,97.03
2023-02-16T23:13:59.744Z,96.79
2023-02-16T23:16:27.980Z,96.78
2023-02-16T23:18:55.852Z,96.76
2023-02-16T23:21:25.604Z,96.47
2023-02-16T23:23:53.568Z,96.58
2023-02-16T23:26:22.436Z,96.46
2023-02-16T23:28:55.741Z,96.45
2023-02-16T23:31:24.651Z,96.39
2023-02-16T23:33:52.103Z,96.49
2023-02-16T23:36:18.863Z,96.35
2023-02-16T23:38:47.185Z,96.43
2023-02-16T23:41:15.355Z,96.30
2023-02-16T23:43:42.282Z,96.35
2023-02-16T23:46:10.092Z,96.29
2023-02-16T23:48:37.268Z,96.22
2023-02-16T23:51:06.125Z,96.16
2023-02-16T23:53:33.236Z,96.18
2023-02-16T23:56:02.941Z,95.89
2023-02-16T23:58:35.015Z,96.11
